<?xml version='1.0' encoding='UTF-8'?><gpx version="1.1" creator="JPX - https://github.com/jenetics/jpx" xmlns="http://www.topografix.com/GPX/1/1"><trk><trkseg><trkpt lat="43.1435232" lon="13.0739934"><ele>546.0</ele><time>2026-04-07T08:26:30.547Z</time></trkpt><trkpt lat="43.1434747" lon="13.0740785"><ele>546.0</ele><time>2026-04-07T08:26:43.493Z</time></trkpt><trkpt lat="43.1431262" lon="13.0755241"><ele>566.0</ele><time>2026-04-07T08:26:49.826Z</time></trkpt><trkpt lat="43.1430084" lon="13.0770268"><ele>569.0</ele><time>2026-04-07T08:26:59.548Z</time></trkpt><trkpt lat="43.1429811" lon="13.0780041"><ele>569.5</ele><time>2026-04-07T08:27:06.474Z</time></trkpt><trkpt lat="43.1426126" lon="13.0783454"><ele>570.0</ele><time>2026-04-07T08:27:13.615Z</time></trkpt><trkpt lat="43.1427845" lon="13.0786401"><ele>568.0</ele><time>2026-04-07T08:27:20.125Z</time></trkpt><trkpt lat="43.1429755" lon="13.0792286"><ele>574.0</ele><time>2026-04-07T08:27:26.789Z</time></trkpt><trkpt lat="43.1432631" lon="13.0810369"><ele>574.0</ele><time>2026-04-07T08:27:33.355Z</time></trkpt><trkpt lat="43.143561" lon="13.0813998"><ele>574.0</ele><time>2026-04-07T08:27:41.412Z</time></trkpt><trkpt lat="43.1444967" lon="13.0830536"><ele>562.0</ele><time>2026-04-07T08:27:48.45Z</time></trkpt><trkpt lat="43.144214" lon="13.0870847"><ele>562.0</ele><time>2026-04-07T08:28:02.381Z</time></trkpt><trkpt lat="43.1440379" lon="13.0871002"><ele>562.0</ele><time>2026-04-07T08:28:15.483Z</time></trkpt><trkpt lat="43.1445775" lon="13.0907312"><ele>562.0</ele><time>2026-04-07T08:28:28.395Z</time></trkpt><trkpt lat="43.144033" lon="13.0870804"><ele>703.0</ele><time>2026-04-07T08:29:39.39Z</time></trkpt><trkpt lat="43.1560401" lon="13.1024904"><ele>703.0</ele><time>2026-04-07T08:33:33.408Z</time></trkpt></trkseg></trk></gpx>